createdAt,value
2023-07-06T00:02:05.971Z,80.13
2023-07-06T00:05:10.131Z,80.53
2023-07-06T00:08:13.516Z,80.89
2023-07-06T00:11:18.559Z,81.19
2023-07-06T00:14:24.247Z,81.60
2023-07-06T00:17:27.056Z,82.21
2023-07-06T00:20:39.446Z,82.44
2023-07-06T00:23:44.915Z,82.78
2023-07-06T00:26:47.415Z,83.16
2023-07-06T00:30:18.716Z,83.78
2023-07-06T00:33:23.109Z,84.23
2023-07-06T00:36:25.845Z,84.38
2023-07-06T00:39:28.289Z,84.28
2023-07-06T00:42:31.656Z,84.32
2023-07-06T00:45:36.120Z,84.33
2023-07-06T00:48:45.353Z,84.09
2023-07-06T00:51:48.986Z,84.41
2023-07-06T00:54:52.953Z,84.44
2023-07-06T00:58:03.274Z,84.28
2023-07-06T01:01:08.028Z,84.15
2023-07-06T01:07:21.262Z,83.93
2023-07-06T01:10:25.011Z,84.05
2023-07-06T01:13:29.864Z,84.31
2023-07-06T01:20:02.646Z,84.66
2023-07-06T01:23:11.213Z,85.06
2023-07-06T01:26:35.554Z,85.01
2023-07-06T01:30:17.664Z,85.39
2023-07-06T01:33:25.703Z,85.96
2023-07-06T01:36:41.686Z,86.24
2023-07-06T01:39:44.517Z,86.69
2023-07-06T01:42:47.032Z,86.80
2023-07-06T01:45:49.898Z,87.12
2023-07-06T01:48:52.345Z,87.29
2023-07-06T01:52:05.528Z,87.54
2023-07-06T01:55:12.907Z,88.04
2023-07-06T01:58:57.087Z,88.37
2023-07-06T02:02:02.415Z,88.74
2023-07-06T02:05:06.868Z,88.37
2023-07-06T02:08:10.863Z,87.98
2023-07-06T02:11:16.238Z,87.51
2023-07-06T02:14:20.441Z,87.23
2023-07-06T02:17:23.762Z,86.81
2023-07-06T02:20:26.284Z,86.64
2023-07-06T02:23:30.797Z,86.64
2023-07-06T02:26:33.650Z,86.66
2023-07-06T02:29:37.512Z,87.06
2023-07-06T02:32:43.152Z,87.03
2023-07-06T02:35:47.145Z,86.91
2023-07-06T02:38:49.916Z,86.97
2023-07-06T02:41:55.664Z,86.94
2023-07-06T02:45:01.044Z,87.17
2023-07-06T02:48:07.033Z,87.37
2023-07-06T02:51:09.848Z,87.70
2023-07-06T02:54:18.127Z,88.04
2023-07-06T02:57:21.446Z,88.47
2023-07-06T03:00:25.157Z,88.11
2023-07-06T03:03:27.996Z,88.23
2023-07-06T03:06:31.612Z,87.79
2023-07-06T03:09:34.458Z,87.57
2023-07-06T03:12:39.976Z,87.34
2023-07-06T03:15:43.811Z,87.23
2023-07-06T03:18:47.920Z,87.39
2023-07-06T03:21:50.693Z,87.14
2023-07-06T03:24:53.282Z,87.13
2023-07-06T03:27:57.357Z,86.81
2023-07-06T03:31:00.396Z,86.76
2023-07-06T03:34:08.836Z,86.96
2023-07-06T03:37:13.051Z,87.06
2023-07-06T03:40:16.175Z,86.98
2023-07-06T03:43:20.223Z,87.07
2023-07-06T03:46:26.092Z,87.23
2023-07-06T03:49:28.676Z,87.56
2023-07-06T03:52:31.566Z,88.05
2023-07-06T03:55:34.024Z,88.31
2023-07-06T03:58:39.637Z,88.53
2023-07-06T04:01:42.161Z,89.02
2023-07-06T04:04:44.982Z,89.59
2023-07-06T04:07:53.516Z,90.30
2023-07-06T04:10:56.321Z,92.37
2023-07-06T04:14:00.467Z,94.24
2023-07-06T04:17:05.041Z,96.52
2023-07-06T04:20:19.822Z,97.73
2023-07-06T04:23:23.207Z,99.19
2023-07-06T04:26:25.790Z,100.00
2023-07-06T04:29:30.794Z,100.00
2023-07-06T04:32:34.401Z,100.00
2023-07-06T04:35:39.990Z,100.00
2023-07-06T04:38:42.958Z,99.56
2023-07-06T04:41:45.759Z,99.94
2023-07-06T04:44:49.936Z,99.50
2023-07-06T04:47:55.103Z,98.82
2023-07-06T04:50:58.613Z,99.18
2023-07-06T04:54:01.408Z,99.17
2023-07-06T04:57:05.279Z,98.30
2023-07-06T05:00:19.094Z,97.29
2023-07-06T05:03:22.088Z,97.38
2023-07-06T05:06:26.224Z,97.12
2023-07-06T05:09:29.693Z,96.85
2023-07-06T05:12:32.508Z,96.22
2023-07-06T05:15:35.183Z,96.64
2023-07-06T05:18:39.676Z,96.35
2023-07-06T05:21:43.981Z,96.58
2023-07-06T05:24:46.876Z,96.76
2023-07-06T05:27:50.888Z,97.12
2023-07-06T05:30:53.701Z,96.54
2023-07-06T05:33:56.329Z,96.22
2023-07-06T05:36:59.143Z,94.50
2023-07-06T05:40:05.220Z,92.58
2023-07-06T05:43:14.741Z,91.37
2023-07-06T05:46:18.239Z,89.29
2023-07-06T05:49:21.044Z,86.84
2023-07-06T05:52:23.682Z,85.34
2023-07-06T05:55:26.398Z,82.76
2023-07-06T05:58:28.902Z,81.88
2023-07-06T06:01:33.525Z,81.06
2023-07-06T06:04:39.014Z,79.52
2023-07-06T06:10:51.837Z,75.08
2023-07-06T06:13:57.320Z,74.04
2023-07-06T06:17:00.112Z,73.17
2023-07-06T06:20:02.863Z,70.13
2023-07-06T06:23:07.429Z,69.41
2023-07-06T06:26:10.767Z,67.89
2023-07-06T06:29:15.075Z,65.13
2023-07-06T06:32:18.170Z,59.88
2023-07-06T06:35:26.251Z,60.26
2023-07-06T06:38:29.855Z,60.04
2023-07-06T06:41:32.630Z,57.40
2023-07-06T06:44:35.499Z,54.69
2023-07-06T06:47:38.315Z,53.09
2023-07-06T06:50:40.850Z,51.32
2023-07-06T06:53:44.299Z,51.25
2023-07-06T06:56:46.741Z,46.70
2023-07-06T06:59:49.543Z,47.10
2023-07-06T07:02:52.082Z,47.82
2023-07-06T07:06:12.372Z,46.52
2023-07-06T07:09:14.944Z,45.80
2023-07-06T07:12:19.453Z,45.67
2023-07-06T07:15:21.992Z,45.85
2023-07-06T07:18:24.836Z,43.79
2023-07-06T07:21:27.371Z,47.61
2023-07-06T07:24:31.266Z,48.92
2023-07-06T07:27:36.814Z,47.72
2023-07-06T07:30:41.740Z,46.91
2023-07-06T07:33:45.150Z,53.03
2023-07-06T07:36:48.324Z,49.70
2023-07-06T07:39:51.045Z,47.11
2023-07-06T07:42:54.952Z,45.22
2023-07-06T07:46:01.902Z,45.37
2023-07-06T07:49:05.211Z,47.92
2023-07-06T07:52:08.122Z,47.43
2023-07-06T07:55:12.218Z,46.19
2023-07-06T07:58:14.785Z,45.60
2023-07-06T08:01:19.463Z,45.42
2023-07-06T08:04:22.314Z,45.37
2023-07-06T08:07:27.471Z,46.83
2023-07-06T08:10:30.373Z,48.07
2023-07-06T08:13:33.586Z,48.29
2023-07-06T08:16:36.497Z,47.38
2023-07-06T08:20:14.798Z,47.64
2023-07-06T08:23:03.900Z,45.40
2023-07-06T08:26:06.361Z,41.29
2023-07-06T08:29:09.225Z,40.71
2023-07-06T08:32:13.290Z,39.73
2023-07-06T08:35:18.615Z,37.43
2023-07-06T08:38:21.172Z,35.85
2023-07-06T08:41:31.646Z,32.99
2023-07-06T08:44:34.237Z,33.60
2023-07-06T08:47:38.591Z,36.94
2023-07-06T08:50:45.887Z,34.83
2023-07-06T08:54:18.016Z,33.37
2023-07-06T08:57:23.319Z,34.38
2023-07-06T09:00:29.207Z,33.50
2023-07-06T09:03:37.621Z,32.88
2023-07-06T09:06:48.412Z,32.19
2023-07-06T09:09:52.416Z,29.80
2023-07-06T09:12:58.410Z,28.72
2023-07-06T09:16:02.159Z,28.95
2023-07-06T09:19:10.330Z,28.01
2023-07-06T09:22:13.335Z,27.74
2023-07-06T09:25:38.397Z,29.58
2023-07-06T09:28:41.003Z,32.36
2023-07-06T09:31:44.453Z,33.13
2023-07-06T09:34:51.538Z,33.12
2023-07-06T09:37:54.343Z,33.63
2023-07-06T09:40:57.043Z,32.68
2023-07-06T09:44:01.946Z,34.64
2023-07-06T09:47:12.524Z,31.59
2023-07-06T09:50:22.346Z,30.49
2023-07-06T09:53:35.164Z,32.53
2023-07-06T09:56:38.102Z,33.72
2023-07-06T09:59:44.625Z,30.50
2023-07-06T10:02:52.863Z,30.28
2023-07-06T10:06:08.610Z,30.30
2023-07-06T10:09:36.735Z,29.78
2023-07-06T10:12:45.205Z,28.19
2023-07-06T10:15:58.607Z,31.07
2023-07-06T10:19:47.730Z,33.88
2023-07-06T10:23:12.296Z,32.24
2023-07-06T10:26:24.191Z,30.80
2023-07-06T10:29:38.516Z,33.56
2023-07-06T10:32:47.867Z,32.23
2023-07-06T10:35:51.899Z,31.91
2023-07-06T10:38:56.631Z,31.25
2023-07-06T10:42:03.947Z,30.98
2023-07-06T10:45:23.277Z,29.85
2023-07-06T10:48:25.706Z,28.28
2023-07-06T10:51:29.009Z,28.11
2023-07-06T10:54:34.460Z,25.71
2023-07-06T10:57:37.932Z,25.90
2023-07-06T11:00:44.206Z,28.08
2023-07-06T11:03:47.666Z,29.28
2023-07-06T11:06:50.359Z,27.90
2023-07-06T11:10:14.792Z,26.95
2023-07-06T11:13:20.719Z,26.65
2023-07-06T11:16:30.567Z,29.83
2023-07-06T11:19:52.690Z,31.09
2023-07-06T11:23:00.872Z,31.64
2023-07-06T11:26:10.222Z,32.21
2023-07-06T11:29:13.160Z,33.02
2023-07-06T11:32:28.866Z,33.19
2023-07-06T11:35:55.889Z,33.17
2023-07-06T11:39:17.056Z,33.38
2023-07-06T11:42:38.764Z,33.11
2023-07-06T11:45:59.785Z,32.57
2023-07-06T11:49:30.936Z,32.72
2023-07-06T11:52:37.412Z,32.75
2023-07-06T11:56:02.931Z,33.53
2023-07-06T11:59:08.665Z,33.60
2023-07-06T12:02:18.859Z,34.16
2023-07-06T12:05:25.867Z,34.06
2023-07-06T12:08:37.186Z,34.81
2023-07-06T12:11:40.158Z,34.96
2023-07-06T12:14:43.216Z,35.35
2023-07-06T12:17:48.700Z,34.95
2023-07-06T12:20:53.129Z,35.72
2023-07-06T12:24:00.562Z,34.97
2023-07-06T12:27:04.646Z,35.04
2023-07-06T12:30:08.037Z,34.30
2023-07-06T12:33:18.094Z,33.93
2023-07-06T12:36:22.828Z,32.77
2023-07-06T12:39:26.268Z,32.87
2023-07-06T12:42:30.450Z,33.43
2023-07-06T12:45:33.730Z,32.73
2023-07-06T12:48:43.214Z,33.08
2023-07-06T12:51:45.754Z,33.77
2023-07-06T12:54:53.718Z,34.32
2023-07-06T12:57:56.200Z,34.76
2023-07-06T13:01:13.340Z,34.92
2023-07-06T13:04:15.886Z,34.14
2023-07-06T13:07:23.134Z,33.53
2023-07-06T13:10:28.136Z,32.92
2023-07-06T13:13:38.827Z,32.74
2023-07-06T13:16:43.550Z,32.97
2023-07-06T13:19:47.190Z,32.54
2023-07-06T13:22:49.801Z,32.99
2023-07-06T13:25:54.184Z,32.97
2023-07-06T13:28:57.827Z,32.48
2023-07-06T13:32:01.993Z,32.78
2023-07-06T13:35:04.714Z,31.27
2023-07-06T13:38:09.637Z,31.48
2023-07-06T13:41:15.693Z,32.04
2023-07-06T13:44:18.580Z,30.55
2023-07-06T13:47:22.212Z,31.08
2023-07-06T13:50:26.864Z,31.03
2023-07-06T13:53:29.807Z,30.90
2023-07-06T13:56:32.712Z,30.71
2023-07-06T13:59:36.386Z,30.57
2023-07-06T14:02:39.703Z,31.29
2023-07-06T14:05:43.460Z,30.33
2023-07-06T14:08:46.066Z,30.75
2023-07-06T14:11:49.245Z,31.20
2023-07-06T14:14:51.787Z,31.30
2023-07-06T14:17:55.700Z,31.62
2023-07-06T14:21:02.557Z,31.35
2023-07-06T14:24:05.729Z,31.62
2023-07-06T14:27:10.926Z,31.75
2023-07-06T14:30:18.817Z,32.24
2023-07-06T14:33:21.387Z,31.82
2023-07-06T14:36:24.123Z,31.51
2023-07-06T14:39:26.617Z,31.75
2023-07-06T14:42:29.377Z,31.95
2023-07-06T14:45:33.363Z,32.25
2023-07-06T14:48:36.130Z,32.30
2023-07-06T14:51:38.630Z,31.63
2023-07-06T14:54:42.074Z,31.90
2023-07-06T14:57:45.636Z,31.39
2023-07-06T15:00:48.416Z,31.40
2023-07-06T15:03:51.189Z,32.04
2023-07-06T15:06:54.308Z,32.30
2023-07-06T15:09:57.059Z,32.07
2023-07-06T15:12:59.849Z,31.87
2023-07-06T15:16:02.610Z,32.46
2023-07-06T15:19:05.648Z,33.03
2023-07-06T15:22:08.770Z,32.81
2023-07-06T15:25:11.872Z,32.44
2023-07-06T15:28:14.426Z,32.85
2023-07-06T15:31:17.770Z,32.87
2023-07-06T15:34:20.573Z,32.76
2023-07-06T15:37:24.246Z,32.97
2023-07-06T15:40:27.204Z,33.79
2023-07-06T15:43:29.952Z,33.91
2023-07-06T15:46:32.761Z,33.43
2023-07-06T15:49:35.626Z,32.77
2023-07-06T15:52:38.134Z,33.13
2023-07-06T15:55:41.048Z,33.86
2023-07-06T15:58:45.819Z,33.93
2023-07-06T16:01:48.741Z,34.15
2023-07-06T16:04:51.867Z,34.64
2023-07-06T16:07:54.440Z,34.78
2023-07-06T16:10:57.265Z,34.33
2023-07-06T16:14:15.309Z,33.63
2023-07-06T16:17:19.814Z,34.11
2023-07-06T16:20:22.342Z,33.30
2023-07-06T16:23:25.253Z,34.00
2023-07-06T16:26:27.913Z,34.40
2023-07-06T16:29:30.814Z,34.27
2023-07-06T16:32:33.735Z,34.06
2023-07-06T16:35:36.639Z,34.37
2023-07-06T16:38:39.660Z,34.05
2023-07-06T16:41:42.501Z,34.49
2023-07-06T16:44:45.092Z,35.48
2023-07-06T16:47:47.874Z,34.85
2023-07-06T16:50:57.192Z,34.97
2023-07-06T16:54:00.170Z,34.60
2023-07-06T16:57:02.721Z,34.73
2023-07-06T17:00:06.264Z,35.19
2023-07-06T17:03:09.306Z,35.97
2023-07-06T17:06:12.148Z,36.16
2023-07-06T17:09:14.650Z,36.14
2023-07-06T17:12:17.403Z,36.46
2023-07-06T17:15:21.606Z,36.72
2023-07-06T17:18:24.562Z,37.21
2023-07-06T17:21:28.113Z,37.59
2023-07-06T17:24:30.959Z,37.61
2023-07-06T17:27:33.609Z,37.73
2023-07-06T17:30:36.413Z,37.98
2023-07-06T17:33:39.379Z,38.35
2023-07-06T17:36:42.188Z,38.57
2023-07-06T17:39:44.658Z,39.29
2023-07-06T17:42:47.494Z,39.58
2023-07-06T17:45:50.020Z,39.69
2023-07-06T17:48:53.061Z,40.44
2023-07-06T17:51:55.539Z,39.89
2023-07-06T17:54:58.377Z,39.69
2023-07-06T17:58:02.521Z,40.07
2023-07-06T18:01:05.524Z,40.63
2023-07-06T18:04:08.966Z,41.24
2023-07-06T18:07:11.652Z,41.58
2023-07-06T18:10:14.508Z,42.06
2023-07-06T18:13:21.218Z,42.04
2023-07-06T18:16:24.465Z,41.75
2023-07-06T18:19:28.525Z,41.60
2023-07-06T18:22:31.310Z,41.63
2023-07-06T18:25:37.957Z,41.63
2023-07-06T18:28:40.839Z,41.83
2023-07-06T18:31:43.388Z,42.27
2023-07-06T18:34:46.209Z,42.15
2023-07-06T18:37:48.840Z,41.96
2023-07-06T18:40:56.148Z,42.08
2023-07-06T18:43:58.967Z,42.26
2023-07-06T18:47:02.433Z,42.57
2023-07-06T18:50:06.387Z,42.75
2023-07-06T18:53:09.263Z,42.91
2023-07-06T18:56:11.905Z,43.26
2023-07-06T18:59:14.861Z,43.30
2023-07-06T19:02:17.833Z,43.48
2023-07-06T19:05:20.592Z,43.62
2023-07-06T19:08:23.122Z,43.93
2023-07-06T19:11:25.938Z,44.53
2023-07-06T19:14:28.575Z,45.67
2023-07-06T19:17:31.412Z,45.30
2023-07-06T19:20:34.014Z,45.59
2023-07-06T19:23:36.923Z,45.45
2023-07-06T19:26:39.623Z,45.37
2023-07-06T19:29:42.595Z,45.61
2023-07-06T19:32:45.232Z,45.94
2023-07-06T19:35:49.483Z,46.05
2023-07-06T19:38:53.636Z,46.57
2023-07-06T19:41:56.411Z,46.46
2023-07-06T19:44:58.896Z,46.95
2023-07-06T19:48:01.802Z,46.95
2023-07-06T19:51:05.381Z,47.17
2023-07-06T19:54:08.231Z,47.48
2023-07-06T19:57:10.755Z,48.61
2023-07-06T20:00:15.106Z,48.65
2023-07-06T20:03:17.607Z,48.78
2023-07-06T20:06:20.490Z,49.00
2023-07-06T20:09:22.986Z,49.66
2023-07-06T20:12:25.809Z,51.35
2023-07-06T20:15:30.095Z,52.33
2023-07-06T20:18:33.879Z,53.07
2023-07-06T20:21:36.506Z,53.52
2023-07-06T20:24:39.269Z,53.60
2023-07-06T20:27:41.821Z,54.08
2023-07-06T20:30:45.785Z,53.79
2023-07-06T20:33:48.286Z,53.86
2023-07-06T20:36:51.076Z,53.33
2023-07-06T20:39:53.666Z,53.13
2023-07-06T20:42:56.442Z,52.59
2023-07-06T20:45:59.752Z,52.32
2023-07-06T20:49:02.541Z,52.38
2023-07-06T20:52:05.976Z,53.03
2023-07-06T20:55:08.958Z,53.17
2023-07-06T20:58:11.582Z,53.39
2023-07-06T21:01:14.422Z,53.12
2023-07-06T21:04:17.272Z,53.80
2023-07-06T21:07:20.411Z,53.57
2023-07-06T21:10:23.929Z,54.19
2023-07-06T21:13:26.810Z,54.15
2023-07-06T21:16:35.222Z,54.77
2023-07-06T21:19:39.198Z,55.18
2023-07-06T21:22:42.180Z,55.00
2023-07-06T21:25:44.957Z,55.01
2023-07-06T21:28:47.476Z,54.98
2023-07-06T21:31:50.463Z,55.74
2023-07-06T21:34:53.590Z,56.48
2023-07-06T21:37:56.364Z,57.36
2023-07-06T21:41:00.784Z,57.62
2023-07-06T21:44:03.933Z,57.26
2023-07-06T21:47:06.757Z,57.84
2023-07-06T21:50:10.099Z,57.72
2023-07-06T21:53:12.909Z,57.73
2023-07-06T21:56:15.705Z,57.67
2023-07-06T21:59:18.156Z,57.76
2023-07-06T22:02:20.999Z,57.73
2023-07-06T22:05:23.760Z,56.90
2023-07-06T22:08:26.401Z,56.96
2023-07-06T22:11:29.336Z,56.80
2023-07-06T22:14:31.912Z,57.23
2023-07-06T22:17:35.345Z,57.60
2023-07-06T22:20:37.858Z,57.74
2023-07-06T22:23:40.816Z,57.46
2023-07-06T22:26:43.635Z,57.82
2023-07-06T22:29:47.212Z,58.09
2023-07-06T22:32:49.799Z,59.59
2023-07-06T22:35:52.642Z,59.84
2023-07-06T22:38:55.129Z,60.17
2023-07-06T22:41:58.496Z,61.17
2023-07-06T22:45:01.057Z,60.94
2023-07-06T22:48:04.057Z,60.78
2023-07-06T22:51:06.761Z,61.97
2023-07-06T22:54:09.669Z,62.20
2023-07-06T22:57:12.108Z,62.84
2023-07-06T23:00:15.077Z,63.02
2023-07-06T23:03:19.474Z,63.12
2023-07-06T23:06:22.728Z,62.95
2023-07-06T23:09:25.598Z,63.06
2023-07-06T23:12:28.847Z,63.31
2023-07-06T23:15:32.421Z,63.84
2023-07-06T23:18:35.196Z,64.11
2023-07-06T23:21:42.117Z,63.52
2023-07-06T23:24:44.950Z,62.84
2023-07-06T23:27:48.886Z,61.56
2023-07-06T23:30:53.160Z,61.43
2023-07-06T23:33:58.726Z,61.75
2023-07-06T23:37:01.755Z,61.68
2023-07-06T23:40:05.743Z,61.34
2023-07-06T23:43:10.072Z,61.97
2023-07-06T23:46:12.621Z,61.95
2023-07-06T23:49:15.362Z,62.95
2023-07-06T23:52:17.913Z,63.67
2023-07-06T23:55:21.214Z,63.87
2023-07-06T23:58:23.656Z,64.37
